Latest  Newer  Older  Last 2 hours slideshow  Last 24 hours slideshow  Refresh every 5 minutes 
Current image  Latest image  Rain/snow radar  Cloud coverage sat images 

All time is UTC (add 2 hours to UTC in wintertime, 3 hours to UTC in DST for Latvia local time)

2021/11/30 20:20 EVRA 302020Z 26004KT 220V300 9999 SCT029 OVC037 M01/M04 Q0987 NOSIG
2021/11/30 20:20 EVLA 302020Z AUTO 33007KT 300V010 9999 SCT041/// OVC056/// 01/M06 Q0990
2021/11/30 20:20 EVVA 302020Z AUTO 33014KT 9999 -RASN SCT037 OVC046 01/M05 Q0989
2021/11/30 20:20 EYKA 302020Z 27002KT 4800 2200W BR FEW012 M05/M06 Q0989
2021/11/30 20:20 EYPA 302020Z 02006KT 9000 -SHSN BKN042CB M01/M03 Q0991
2021/11/30 20:20 EYSA 302020Z 28009KT 9999 BKN039 M04/M07 Q0989 NOSIG
2021/11/30 20:20 EYVI 302020Z 20003KT 0250 R19/0600V1000N FZFG SCT023 M06/M06 Q0989 NOSIG
2021/11/30 16:20 EEKA 301620Z 33022KT 9999 BKN019 M03/M06 Q0986
2021/11/30 20:20 EEKE 302020Z AUTO 34010G20KT 9999NDV BKN030 OVC039 M01/M06 Q0988

2021/11/30 20:20 EETN 302020Z 32012KT 9999 DRSN OVC011 M07/M09 Q0983 NOSIG
2021/11/30 20:20 EETU 302020Z AUTO 29011KT 270V330 9999 -SN OVC011/// M06/M09 Q0982
   RIGA AIRPORT     EVRA               56 55N  023 58E   10   X     T          6 LV
   LIEPAJA INTL     EVLA        26406  56 31N  021 06E    4   X                8 LV
   VENTPILS         EVVA               57 21N  021 33E    6   X                8 LV
   KAUNAS           EYKA               54 54N  023 55E   77   X     T          6 LT
   PALANGA INTL     EYPA               55 55N  021 03E   10   X                6 LT
   SIAULIAI INTL    EYSA               55 54N  023 24E  135   X     T          6 LT
   VILNIUS INTL     EYVI        26730  54 38N  025 17E  197   X     T          6 LT
   KARDLA           EEKA        26116  58 59N  022 50E    4   X                8 EE
   KURESSAARE       EEKE               58 14N  022 31E    4   X                8 EE
   PARNU            EEPU               58 25N  024 28E   14   X                8 EE
   TALLINN          EETN        26038  59 24N  024 49E   40   X     T          8 EE
   TARTU            EETU               58 19N  026 41E   67   X                8 EE